createdAt,value
2018-12-04T00:00:07.245Z,-2.1
2018-12-04T00:00:57.288Z,-2.2
2018-12-04T00:01:47.557Z,-2.1
2018-12-04T00:02:37.350Z,-2.2
2018-12-04T00:03:26.915Z,-2.1
2018-12-04T00:04:17.204Z,-2.2
2018-12-04T00:05:07.490Z,-2.1
2018-12-04T00:05:57.920Z,-2.2
2018-12-04T00:06:48.217Z,-2.1
2018-12-04T00:25:02.758Z,-2.2
2018-12-04T00:25:52.746Z,-2.2
2018-12-04T00:26:42.817Z,-2.2
2018-12-04T00:27:32.638Z,-2.2
2018-12-04T00:28:22.403Z,-2.2
2018-12-04T00:29:12.480Z,-2.2
2018-12-04T00:30:02.992Z,-2.3
2018-12-04T00:30:52.810Z,-2.3
2018-12-04T00:31:43.148Z,-2.3
2018-12-04T00:32:32.955Z,-2.3
2018-12-04T00:33:22.981Z,-2.3
2018-12-04T00:34:13.315Z,-2.3
2018-12-04T00:35:03.464Z,-2.3
2018-12-04T00:35:53.155Z,-2.3
2018-12-04T00:36:43.198Z,-2.3
2018-12-04T00:37:32.977Z,-2.3
2018-12-04T00:38:23.312Z,-2.3
2018-12-04T00:39:13.654Z,-2.3
2018-12-04T00:40:02.994Z,-2.3
2018-12-04T00:40:53.760Z,-2.3
2018-12-04T00:41:43.549Z,-2.3
2018-12-04T00:42:33.884Z,-2.3
2018-12-04T00:43:23.929Z,-2.3
2018-12-04T00:44:13.987Z,-2.3
2018-12-04T00:45:04.054Z,-2.3
2018-12-04T00:45:54.107Z,-2.3
2018-12-04T00:46:43.663Z,-2.3
2018-12-04T00:47:33.940Z,-2.3
2018-12-04T00:48:24.004Z,-2.3
2018-12-04T00:49:14.331Z,-2.3
2018-12-04T00:50:04.401Z,-2.3
2018-12-04T00:50:54.176Z,-2.3
2018-12-04T00:51:44.521Z,-2.3
2018-12-04T00:52:34.297Z,-2.3
2018-12-04T00:53:24.348Z,-2.3
2018-12-04T00:54:14.134Z,-2.3
2018-12-04T00:55:04.739Z,-2.3
2018-12-04T00:55:54.243Z,-2.3
2018-12-04T00:56:44.307Z,-2.3
2018-12-04T00:57:34.905Z,-2.4
2018-12-04T00:58:24.738Z,-2.4
2018-12-04T00:59:14.733Z,-2.3
2018-12-04T01:00:05.106Z,-2.4
2018-12-04T01:00:55.123Z,-2.4
2018-12-04T01:01:45.153Z,-2.4
2018-12-04T01:02:35.250Z,-2.4
2018-12-04T01:03:25.305Z,-2.4
2018-12-04T01:04:15.086Z,-2.4
2018-12-04T01:05:05.133Z,-2.4
2018-12-04T01:05:55.195Z,-2.4
2018-12-04T01:06:45.261Z,-2.4
2018-12-04T01:07:35.305Z,-2.4
2018-12-04T01:08:25.086Z,-2.4
2018-12-04T01:09:15.435Z,-2.4
2018-12-04T01:10:05.767Z,-2.4
2018-12-04T01:10:56.064Z,-2.4
2018-12-04T01:11:45.605Z,-2.4
2018-12-04T01:12:35.929Z,-2.4
2018-12-04T01:13:25.992Z,-2.4
2018-12-04T01:14:15.497Z,-2.4
2018-12-04T01:15:05.552Z,-2.4
2018-12-04T01:15:55.614Z,-2.4
2018-12-04T01:16:46.232Z,-2.4
2018-12-04T01:17:36.294Z,-2.4
2018-12-04T01:18:26.071Z,-2.4
2018-12-04T01:19:16.382Z,-2.4
2018-12-04T01:20:06.457Z,-2.4
2018-12-04T01:20:56.512Z,-2.4
2018-12-04T01:21:46.570Z,-2.4
2018-12-04T01:22:36.683Z,-2.4
2018-12-04T01:23:26.682Z,-2.4
2018-12-04T01:24:16.467Z,-2.4
2018-12-04T01:25:06.580Z,-2.4
2018-12-04T01:25:56.854Z,-2.4
2018-12-04T01:26:46.914Z,-2.4
2018-12-04T01:27:37.017Z,-2.4
2018-12-04T01:28:26.738Z,-2.4
2018-12-04T01:29:16.529Z,-2.4
2018-12-04T01:30:07.131Z,-2.4
2018-12-04T01:30:56.969Z,-2.4
2018-12-04T01:31:47.254Z,-2.4
2018-12-04T01:32:36.781Z,-2.4
2018-12-04T01:33:26.828Z,-2.4
2018-12-04T01:34:17.423Z,-2.4
2018-12-04T01:35:07.207Z,-2.4
2018-12-04T01:35:57.536Z,-2.4
2018-12-04T01:36:47.581Z,-2.4
2018-12-04T01:37:37.949Z,-2.4
2018-12-04T01:38:27.151Z,-2.4
2018-12-04T01:39:17.776Z,-2.4
2018-12-04T01:40:07.821Z,-2.4
2018-12-04T01:40:57.933Z,-2.4
2018-12-04T01:41:47.676Z,-2.4
2018-12-04T01:42:37.721Z,-2.4
2018-12-04T01:43:27.503Z,-2.5
2018-12-04T01:44:17.085Z,-2.5
2018-12-04T01:45:07.895Z,-2.5
2018-12-04T01:45:57.403Z,-2.4
2018-12-04T01:46:47.459Z,-2.5
2018-12-04T01:47:38.590Z,-2.4
2018-12-04T01:48:28.130Z,-2.5
2018-12-04T01:49:18.191Z,-2.5
2018-12-04T01:50:07.765Z,-2.5
2018-12-04T01:50:57.544Z,-2.5
2018-12-04T01:51:48.665Z,-2.5
2018-12-04T01:52:38.175Z,-2.5
2018-12-04T01:53:27.990Z,-2.5
2018-12-04T01:54:18.037Z,-2.6
2018-12-04T01:55:08.364Z,-2.5
2018-12-04T01:55:58.902Z,-2.5
2018-12-04T01:56:48.979Z,-2.5
2018-12-04T01:57:38.279Z,-2.5
2018-12-04T01:58:29.147Z,-2.5
2018-12-04T01:59:18.869Z,-2.5
2018-12-04T02:00:08.174Z,-2.5
2018-12-04T02:00:58.501Z,-2.5
2018-12-04T02:01:48.838Z,-2.6
2018-12-04T02:02:39.190Z,-2.5
2018-12-04T02:03:29.146Z,-2.5
2018-12-04T02:04:19.484Z,-2.5
2018-12-04T02:05:09.551Z,-2.6
2018-12-04T02:05:59.337Z,-2.5
2018-12-04T02:06:49.661Z,-2.5
2018-12-04T02:07:39.696Z,-2.5
2018-12-04T02:08:29.489Z,-2.5
2018-12-04T02:09:19.824Z,-2.5
2018-12-04T02:10:09.334Z,-2.5
2018-12-04T02:10:59.947Z,-2.6
2018-12-04T02:11:49.730Z,-2.5
2018-12-04T02:12:39.784Z,-2.6
2018-12-04T02:13:29.281Z,-2.6
2018-12-04T02:14:19.903Z,-2.6
2018-12-04T02:15:10.228Z,-2.5
2018-12-04T02:16:00.281Z,-2.6
2018-12-04T02:16:50.094Z,-2.6
2018-12-04T02:17:40.396Z,-2.6
2018-12-04T02:18:30.181Z,-2.6
2018-12-04T02:19:20.506Z,-2.6
2018-12-04T02:20:10.298Z,-2.6
2018-12-04T02:21:00.642Z,-2.6
2018-12-04T02:21:50.408Z,-2.6
2018-12-04T02:22:40.745Z,-2.6
2018-12-04T02:23:30.798Z,-2.6
2018-12-04T02:24:20.856Z,-2.6
2018-12-04T02:25:10.900Z,-2.6
2018-12-04T02:26:00.686Z,-2.6
2018-12-04T02:26:51.030Z,-2.6
2018-12-04T02:27:40.266Z,-2.6
2018-12-04T02:28:30.860Z,-2.6
2018-12-04T02:29:20.925Z,-2.6
2018-12-04T02:30:11.303Z,-2.6
2018-12-04T02:31:01.064Z,-2.6
2018-12-04T02:31:51.109Z,-2.6
2018-12-04T02:32:41.162Z,-2.6
2018-12-04T02:33:31.505Z,-2.6
2018-12-04T02:34:21.250Z,-2.6
2018-12-04T02:35:11.055Z,-2.6
2018-12-04T02:36:01.419Z,-2.6
2018-12-04T02:36:51.735Z,-2.6
2018-12-04T02:37:41.797Z,-2.6
2018-12-04T02:38:31.574Z,-2.6
2018-12-04T02:39:21.923Z,-2.6
2018-12-04T02:40:11.418Z,-2.6
2018-12-04T02:41:01.991Z,-2.6
2018-12-04T02:41:52.063Z,-2.6
2018-12-04T02:42:42.174Z,-2.6
2018-12-04T02:43:32.174Z,-2.6
2018-12-04T02:44:22.234Z,-2.6
2018-12-04T02:45:12.006Z,-2.6
2018-12-04T02:46:02.081Z,-2.6
2018-12-04T02:46:52.137Z,-2.6
2018-12-04T02:47:42.192Z,-2.6
2018-12-04T02:48:32.264Z,-2.6
2018-12-04T02:49:22.306Z,-2.6
2018-12-04T02:50:12.901Z,-2.6
2018-12-04T02:51:02.696Z,-2.6
2018-12-04T02:51:52.209Z,-2.6
2018-12-04T02:52:42.838Z,-2.6
2018-12-04T02:53:32.963Z,-2.6
2018-12-04T02:54:22.383Z,-2.6
2018-12-04T02:55:12.701Z,-2.6
2018-12-04T02:56:03.050Z,-2.6
2018-12-04T02:56:52.838Z,-2.6
2018-12-04T02:57:42.901Z,-2.6
2018-12-04T02:58:32.939Z,-2.6
2018-12-04T02:59:22.717Z,-2.6
2018-12-04T03:00:12.770Z,-2.6
2018-12-04T03:01:03.430Z,-2.6
2018-12-04T03:01:53.436Z,-2.6
2018-12-04T03:02:43.213Z,-2.6
2018-12-04T03:03:33.557Z,-2.6
2018-12-04T03:04:23.600Z,-2.6
2018-12-04T03:05:13.662Z,-2.6
2018-12-04T03:06:03.516Z,-2.6
2018-12-04T03:06:53.223Z,-2.6
2018-12-04T03:07:43.840Z,-2.6
2018-12-04T03:08:33.602Z,-2.6
2018-12-04T03:09:23.127Z,-2.6
2018-12-04T03:10:14.096Z,-2.6
2018-12-04T03:11:03.813Z,-2.6
2018-12-04T03:11:54.133Z,-2.6
2018-12-04T03:12:44.196Z,-2.6
2018-12-04T03:13:34.249Z,-2.6
2018-12-04T03:14:23.983Z,-2.6
2018-12-04T03:15:13.813Z,-2.6
2018-12-04T03:16:04.414Z,-2.6
2018-12-04T03:16:54.199Z,-2.6
2018-12-04T03:17:44.553Z,-2.6
2018-12-04T03:18:34.560Z,-2.6
2018-12-04T03:19:24.435Z,-2.6
2018-12-04T03:20:14.423Z,-2.6
2018-12-04T03:21:04.508Z,-2.6
2018-12-04T03:21:54.825Z,-2.6
2018-12-04T03:22:44.873Z,-2.6
2018-12-04T03:23:34.977Z,-2.6
2018-12-04T03:24:25.087Z,-2.6
2018-12-04T03:25:14.500Z,-2.6
2018-12-04T03:26:05.105Z,-2.6
2018-12-04T03:26:54.884Z,-2.6
2018-12-04T03:27:45.217Z,-2.6
2018-12-04T03:28:34.727Z,-2.6
2018-12-04T03:29:25.030Z,-2.6
2018-12-04T03:30:15.505Z,-2.6
2018-12-04T03:31:05.500Z,-2.6
2018-12-04T03:31:55.650Z,-2.6
2018-12-04T03:32:45.369Z,-2.6
2018-12-04T03:33:35.404Z,-2.6
2018-12-04T03:34:25.927Z,-2.6
2018-12-04T03:35:15.493Z,-2.6
2018-12-04T03:36:05.579Z,-2.6
2018-12-04T03:36:55.299Z,-2.6
2018-12-04T03:37:45.622Z,-2.6
2018-12-04T03:38:35.679Z,-2.6
2018-12-04T03:39:26.009Z,-2.6
2018-12-04T03:40:16.081Z,-2.6
2018-12-04T03:41:06.156Z,-2.6
2018-12-04T03:41:56.174Z,-2.6
2018-12-04T03:42:46.236Z,-2.6
2018-12-04T03:43:36.292Z,-2.6
2018-12-04T03:44:26.353Z,-2.6
2018-12-04T03:45:16.161Z,-2.6
2018-12-04T03:46:06.479Z,-2.6
2018-12-04T03:46:56.525Z,-2.6
2018-12-04T03:47:46.311Z,-2.6
2018-12-04T03:48:36.650Z,-2.6
2018-12-04T03:49:26.688Z,-2.6
2018-12-04T03:50:16.171Z,-2.6
2018-12-04T03:51:06.526Z,-2.6
2018-12-04T03:51:56.868Z,-2.6
2018-12-04T03:52:46.383Z,-2.6
2018-12-04T03:53:36.711Z,-2.6
2018-12-04T03:54:26.780Z,-2.6
2018-12-04T03:55:17.123Z,-2.6
2018-12-04T03:56:06.880Z,-2.6
2018-12-04T03:56:57.213Z,-2.6
2018-12-04T03:57:47.269Z,-2.6
2018-12-04T03:58:37.071Z,-2.6
2018-12-04T03:59:27.430Z,-2.6
2018-12-04T04:00:17.169Z,-2.6
2018-12-04T04:01:07.010Z,-2.6
2018-12-04T04:01:57.275Z,-2.6
2018-12-04T04:02:47.915Z,-2.5
2018-12-04T04:03:37.695Z,-2.6
2018-12-04T04:04:27.463Z,-2.6
2018-12-04T04:05:17.547Z,-2.6
2018-12-04T04:06:07.851Z,-2.5
2018-12-04T04:06:57.347Z,-2.5
2018-12-04T04:07:47.428Z,-2.6
2018-12-04T04:08:37.195Z,-2.6
2018-12-04T04:09:28.052Z,-2.5
2018-12-04T04:10:19.229Z,-2.5
2018-12-04T04:11:08.198Z,-2.5
2018-12-04T04:11:58.265Z,-2.5
2018-12-04T04:12:48.035Z,-2.5
2018-12-04T04:13:38.372Z,-2.5
2018-12-04T04:14:28.664Z,-2.5
2018-12-04T04:15:18.005Z,-2.5
2018-12-04T04:16:07.974Z,-2.5
2018-12-04T04:16:58.585Z,-2.5
2018-12-04T04:17:48.635Z,-2.5
2018-12-04T04:18:38.694Z,-2.5
2018-12-04T04:19:28.210Z,-2.5
2018-12-04T04:20:18.814Z,-2.5
2018-12-04T04:21:08.617Z,-2.5
2018-12-04T04:21:58.932Z,-2.5
2018-12-04T04:22:49.001Z,-2.5
2018-12-04T04:23:38.794Z,-2.5
2018-12-04T04:24:28.824Z,-2.5
2018-12-04T04:25:19.881Z,-2.5
2018-12-04T04:26:08.952Z,-2.5
2018-12-04T04:26:59.300Z,-2.5
2018-12-04T04:27:49.047Z,-2.5
2018-12-04T04:28:39.109Z,-2.5
2018-12-04T04:29:28.888Z,-2.5
2018-12-04T04:30:19.489Z,-2.5
2018-12-04T04:31:09.284Z,-2.5
2018-12-04T04:31:59.364Z,-2.4
2018-12-04T04:32:49.664Z,-2.4
2018-12-04T04:33:39.199Z,-2.4
2018-12-04T04:34:29.266Z,-2.5
2018-12-04T04:35:19.831Z,-2.4
2018-12-04T04:36:09.623Z,-2.4
2018-12-04T04:36:59.966Z,-2.4
2018-12-04T04:54:20.053Z,-2.4
2018-12-04T04:55:10.045Z,-2.3
2018-12-04T04:55:59.586Z,-2.3
2018-12-04T04:56:49.380Z,-2.3
2018-12-04T04:57:39.167Z,-2.3
2018-12-04T04:58:30.040Z,-2.3
2018-12-04T04:59:20.072Z,-2.3
2018-12-04T05:00:10.161Z,-2.3
2018-12-04T05:01:00.193Z,-2.2
2018-12-04T05:01:50.240Z,-2.2
2018-12-04T05:02:40.016Z,-2.1
2018-12-04T05:03:30.077Z,-2.1
2018-12-04T05:04:20.405Z,-2.1
2018-12-04T05:05:10.433Z,-2.1
2018-12-04T05:05:59.985Z,-2.1
2018-12-04T05:06:50.305Z,-2.1
2018-12-04T05:07:40.365Z,-2.1
2018-12-04T05:08:30.745Z,-2.1
2018-12-04T05:09:20.763Z,-2.1
2018-12-04T05:10:10.809Z,-2.1
2018-12-04T05:11:00.873Z,-2.1
2018-12-04T05:11:50.652Z,-2.1
2018-12-04T05:12:40.977Z,-2.1
2018-12-04T05:13:30.504Z,-2
2018-12-04T05:14:20.562Z,-2
2018-12-04T05:15:10.899Z,-2
2018-12-04T05:16:00.964Z,-1.9
2018-12-04T05:16:50.737Z,-1.9
2018-12-04T05:17:41.338Z,-1.9
2018-12-04T05:18:31.127Z,-1.9
2018-12-04T05:19:21.162Z,-1.9
2018-12-04T05:20:11.243Z,-1.9
2018-12-04T05:21:01.279Z,-1.9
2018-12-04T05:21:51.592Z,-1.9
2018-12-04T05:22:41.673Z,-1.9
2018-12-04T05:23:31.722Z,-1.8
2018-12-04T05:24:21.764Z,-1.8
2018-12-04T05:25:11.285Z,-1.8
2018-12-04T05:26:01.386Z,-1.8
2018-12-04T05:26:51.946Z,-1.8
2018-12-04T05:27:42.026Z,-1.8
2018-12-04T05:28:31.793Z,-1.8
2018-12-04T05:29:22.166Z,-1.9
2018-12-04T05:30:11.912Z,-1.8
2018-12-04T05:31:02.253Z,-1.8
2018-12-04T05:31:52.293Z,-1.8
2018-12-04T05:32:42.342Z,-1.8
2018-12-04T05:33:32.146Z,-1.8
2018-12-04T05:34:22.518Z,-1.8
2018-12-04T05:35:12.240Z,-1.9
2018-12-04T05:36:02.623Z,-1.8
2018-12-04T05:36:52.640Z,-1.9
2018-12-04T05:37:42.410Z,-1.8
2018-12-04T05:38:32.771Z,-1.8
2018-12-04T05:39:22.585Z,-1.8
2018-12-04T05:40:12.578Z,-1.9
2018-12-04T05:41:02.641Z,-1.9
2018-12-04T05:41:52.697Z,-1.9
2018-12-04T05:42:42.773Z,-1.9
2018-12-04T05:43:32.820Z,-1.9
2018-12-04T05:44:23.160Z,-1.9
2018-12-04T05:45:13.195Z,-1.9
2018-12-04T05:46:02.757Z,-1.8
2018-12-04T05:46:53.307Z,-1.9
2018-12-04T05:47:43.104Z,-1.9
2018-12-04T05:48:33.142Z,-1.9
2018-12-04T05:49:22.944Z,-1.9
2018-12-04T05:50:13.537Z,-1.9
2018-12-04T05:51:03.594Z,-1.9
2018-12-04T05:51:53.387Z,-1.9
2018-12-04T05:52:43.727Z,-1.9
2018-12-04T05:53:33.495Z,-1.9
2018-12-04T05:54:23.271Z,-1.9
2018-12-04T05:55:13.877Z,-1.9
2018-12-04T05:56:03.941Z,-1.9
2018-12-04T05:56:53.724Z,-1.9
2018-12-04T05:57:43.791Z,-1.9
2018-12-04T05:58:34.104Z,-1.9
2018-12-04T05:59:23.906Z,-1.9
2018-12-04T06:00:13.736Z,-1.9
2018-12-04T06:01:03.998Z,-1.9
2018-12-04T06:01:54.058Z,-1.9
2018-12-04T06:02:44.109Z,-1.9
2018-12-04T06:03:34.211Z,-1.9
2018-12-04T06:04:23.960Z,-1.9
2018-12-04T06:05:14.579Z,-1.9
2018-12-04T06:06:04.636Z,-1.8
2018-12-04T06:06:54.918Z,-1.9
2018-12-04T06:07:44.455Z,-1.9
2018-12-04T06:08:34.780Z,-1.8
2018-12-04T06:09:24.563Z,-1.8
2018-12-04T06:10:14.070Z,-1.8
2018-12-04T06:11:04.946Z,-1.8
2018-12-04T06:11:54.742Z,-1.8
2018-12-04T06:12:45.070Z,-1.8
2018-12-04T06:13:34.873Z,-1.8
2018-12-04T06:14:24.618Z,-1.8
2018-12-04T06:15:15.247Z,-1.8
2018-12-04T06:16:05.302Z,-1.8
2018-12-04T06:16:55.342Z,-1.8
2018-12-04T06:17:44.582Z,-1.8
2018-12-04T06:18:35.703Z,-1.8
2018-12-04T06:19:25.523Z,-1.8
2018-12-04T06:20:15.561Z,-1.8
2018-12-04T06:21:05.360Z,-1.8
2018-12-04T06:21:55.712Z,-1.8
2018-12-04T06:22:45.187Z,-1.8
2018-12-04T06:23:35.239Z,-1.8
2018-12-04T06:24:25.289Z,-1.7
2018-12-04T06:25:15.942Z,-1.7
2018-12-04T06:26:06.274Z,-1.7
2018-12-04T06:26:56.284Z,-1.7
2018-12-04T06:27:46.082Z,-1.7
2018-12-04T06:28:36.141Z,-1.7
2018-12-04T06:29:25.922Z,-1.7
2018-12-04T06:30:16.269Z,-1.7
2018-12-04T06:31:06.026Z,-1.6
2018-12-04T06:31:56.356Z,-1.6
2018-12-04T06:32:46.141Z,-1.6
2018-12-04T06:33:36.506Z,-1.6
2018-12-04T06:34:25.721Z,-1.6
2018-12-04T06:35:16.600Z,-1.6
2018-12-04T06:36:06.651Z,-1.6
2018-12-04T06:36:56.418Z,-1.6
2018-12-04T06:37:46.493Z,-1.5
2018-12-04T06:38:36.541Z,-1.5
2018-12-04T06:39:26.635Z,-1.5
2018-12-04T06:40:16.938Z,-1.5
2018-12-04T06:41:06.993Z,-1.4
2018-12-04T06:41:56.534Z,-1.4
2018-12-04T06:42:47.150Z,-1.4
2018-12-04T06:43:36.607Z,-1.4
2018-12-04T06:44:27.460Z,-1.4
2018-12-04T06:45:17.271Z,-1.4
2018-12-04T06:46:07.338Z,-1.4
2018-12-04T06:46:57.380Z,-1.4
2018-12-04T06:47:47.441Z,-1.3
2018-12-04T06:48:37.503Z,-1.3
2018-12-04T06:49:27.337Z,-1.3
2018-12-04T06:50:17.347Z,-1.3
2018-12-04T06:51:07.407Z,-1.3
2018-12-04T06:51:57.457Z,-1.3
2018-12-04T06:52:47.519Z,-1.2
2018-12-04T06:53:37.595Z,-1.3
2018-12-04T06:54:27.629Z,-1.2
2018-12-04T06:55:17.689Z,-1.1
2018-12-04T06:56:07.735Z,-1.1
2018-12-04T06:56:57.517Z,-1.1
2018-12-04T06:57:47.590Z,-1.1
2018-12-04T06:58:38.177Z,-1.1
2018-12-04T06:59:27.972Z,-1.1
2018-12-04T07:00:18.017Z,-1
2018-12-04T07:01:07.794Z,-1
2018-12-04T07:01:58.402Z,-1
2018-12-04T07:04:28.829Z,-0.9
2018-12-04T07:05:18.372Z,-0.9
2018-12-04T07:06:08.682Z,-0.8
2018-12-04T07:06:58.749Z,-0.8
2018-12-04T07:07:48.804Z,-0.8
2018-12-04T07:08:38.864Z,-0.8
2018-12-04T07:09:28.916Z,-0.7
2018-12-04T07:10:18.976Z,-0.6
2018-12-04T07:11:08.766Z,-0.6
2018-12-04T07:12:03.974Z,-0.6
2018-12-04T07:12:48.864Z,-0.6
2018-12-04T07:13:38.726Z,-0.6
2018-12-04T07:14:29.501Z,-0.5
2018-12-04T07:15:19.056Z,-0.5
2018-12-04T07:16:08.558Z,-0.4
2018-12-04T07:16:59.441Z,-0.4
2018-12-04T07:17:49.203Z,-0.4
2018-12-04T07:18:39.258Z,-0.4
2018-12-04T07:19:29.318Z,-0.3
2018-12-04T07:20:19.369Z,-0.3
2018-12-04T07:21:09.718Z,-0.3
2018-12-04T07:22:00.506Z,-0.3
2018-12-04T07:22:49.828Z,-0.2
2018-12-04T07:23:39.618Z,-0.1
2018-12-04T07:24:29.958Z,-0.1
2018-12-04T07:25:20.010Z,-0.1
2018-12-04T07:26:09.532Z,-0.1
2018-12-04T07:26:59.610Z,0
2018-12-04T07:27:49.892Z,0
2018-12-04T07:28:39.680Z,0.1
2018-12-04T07:29:30.295Z,0.1
2018-12-04T07:30:20.343Z,0.1
2018-12-04T07:31:10.085Z,0.1
2018-12-04T07:32:00.143Z,0.2
2018-12-04T07:32:50.229Z,0.2
2018-12-04T07:33:40.315Z,0.3
2018-12-04T07:34:30.364Z,0.3
2018-12-04T07:35:20.690Z,0.3
2018-12-04T07:36:10.470Z,0.4
2018-12-04T07:37:01.105Z,0.4
2018-12-04T07:37:50.035Z,0.4
2018-12-04T07:38:40.907Z,0.4
2018-12-04T07:39:31.007Z,0.5
2018-12-04T07:40:21.034Z,0.5
2018-12-04T07:41:11.114Z,0.6
2018-12-04T07:42:01.147Z,0.6
2018-12-04T07:42:50.922Z,0.6
2018-12-04T07:43:40.972Z,0.7
2018-12-04T07:44:31.294Z,0.8
2018-12-04T07:45:21.362Z,0.8
2018-12-04T07:46:11.427Z,0.8
2018-12-04T07:47:01.208Z,0.8
2018-12-04T07:47:51.534Z,0.8
2018-12-04T07:48:41.037Z,0.9
2018-12-04T07:49:31.391Z,0.9
2018-12-04T07:50:21.463Z,0.9
2018-12-04T07:51:11.759Z,1
2018-12-04T07:52:01.539Z,1
2018-12-04T07:52:51.659Z,1.1
2018-12-04T07:53:41.654Z,1.1
2018-12-04T07:54:32.001Z,1.1
2018-12-04T07:55:22.044Z,1.2
2018-12-04T07:56:11.559Z,1.2
2018-12-04T07:57:01.891Z,1.3
2018-12-04T07:57:52.045Z,1.3
2018-12-04T07:58:42.008Z,1.3
2018-12-04T07:59:32.338Z,1.4
2018-12-04T08:00:21.821Z,1.4
2018-12-04T08:01:12.411Z,1.4
2018-12-04T08:02:02.239Z,1.4
2018-12-04T08:02:52.858Z,1.5
2018-12-04T08:03:42.608Z,1.6
2018-12-04T08:04:32.653Z,1.6
2018-12-04T08:05:22.442Z,1.6
2018-12-04T08:06:12.790Z,1.7
2018-12-04T08:07:02.867Z,1.7
2018-12-04T08:07:53.218Z,1.8
2018-12-04T08:08:42.672Z,1.8
2018-12-04T08:09:32.438Z,1.9
2018-12-04T08:10:22.802Z,1.9
2018-12-04T08:11:12.600Z,2
2018-12-04T08:12:02.704Z,2
2018-12-04T08:12:53.237Z,2.1
2018-12-04T08:13:43.295Z,2.1
2018-12-04T08:14:33.342Z,2.2
2018-12-04T08:15:23.132Z,2.2
2018-12-04T08:16:13.464Z,2.3
2018-12-04T08:17:03.509Z,2.3
2018-12-04T08:17:53.032Z,2.4
2018-12-04T08:18:43.422Z,2.4
2018-12-04T08:19:33.920Z,2.4
2018-12-04T08:20:23.475Z,2.5
2018-12-04T08:21:13.831Z,2.6
2018-12-04T08:22:03.584Z,2.6
2018-12-04T08:22:53.911Z,2.7
2018-12-04T08:23:44.212Z,2.7
2018-12-04T08:24:34.834Z,2.8
2018-12-04T08:25:24.081Z,2.8
2018-12-04T08:26:14.441Z,2.9
2018-12-04T08:27:04.206Z,2.9
2018-12-04T08:27:53.993Z,2.9
2018-12-04T08:28:43.763Z,2.9
2018-12-04T08:29:34.101Z,3
2018-12-04T08:30:24.670Z,3.1
2018-12-04T08:31:14.483Z,3.1
2018-12-04T08:32:04.560Z,3.1
2018-12-04T08:32:54.585Z,3.1
2018-12-04T08:33:44.371Z,3.2
2018-12-04T08:34:34.440Z,3.3
2018-12-04T08:35:24.483Z,3.3
2018-12-04T08:36:14.818Z,3.3
2018-12-04T08:37:04.608Z,3.3
2018-12-04T08:37:54.668Z,3.4
2018-12-04T08:38:45.040Z,3.4
2018-12-04T08:39:34.493Z,3.5
2018-12-04T08:40:25.090Z,3.6
2018-12-04T08:41:14.862Z,3.6
2018-12-04T08:42:05.203Z,3.7
2018-12-04T08:42:55.260Z,3.8
2018-12-04T08:43:45.575Z,3.8
2018-12-04T08:44:35.105Z,3.9
2018-12-04T08:45:25.440Z,3.9
2018-12-04T08:46:15.475Z,4
2018-12-04T08:47:05.550Z,4.1
2018-12-04T08:47:55.314Z,4.1
2018-12-04T08:48:45.117Z,4.3
2018-12-04T08:49:35.720Z,4.3
2018-12-04T08:50:25.217Z,4.4
2018-12-04T08:51:15.831Z,4.5
2018-12-04T08:52:05.876Z,4.6
2018-12-04T08:52:55.674Z,4.6
2018-12-04T09:08:44.725Z,6
2018-12-04T09:09:34.628Z,6.1
2018-12-04T09:10:24.723Z,6.2
2018-12-04T09:11:14.424Z,6.2
2018-12-04T09:12:04.469Z,6.3
2018-12-04T09:12:54.271Z,6.3
2018-12-04T09:13:44.875Z,6.3
2018-12-04T09:14:40.448Z,6.4
2018-12-04T09:15:24.681Z,6.4
2018-12-04T09:16:14.490Z,6.4
2018-12-04T09:17:04.281Z,6.5
2018-12-04T09:17:55.157Z,6.6
2018-12-04T09:18:45.419Z,6.6
2018-12-04T09:19:35.144Z,6.7
2018-12-04T09:20:25.746Z,6.7
2018-12-04T09:21:15.378Z,6.8
2018-12-04T09:22:05.645Z,6.8
2018-12-04T09:22:55.374Z,6.8
2018-12-04T09:23:45.774Z,6.9
2018-12-04T09:24:35.386Z,6.9
2018-12-04T09:25:25.817Z,6.9
2018-12-04T09:26:15.791Z,7
2018-12-04T09:27:07.552Z,7.1
2018-12-04T09:27:56.912Z,7.1
2018-12-04T09:28:45.313Z,7.1
2018-12-04T09:29:35.797Z,7.2
2018-12-04T09:30:25.545Z,7.2
2018-12-04T09:31:15.572Z,7.3
2018-12-04T09:32:05.624Z,7.3
2018-12-04T09:32:55.402Z,7.4
2018-12-04T09:33:45.910Z,7.4
2018-12-04T09:34:35.789Z,7.5
2018-12-04T09:35:25.597Z,7.6
2018-12-04T09:36:15.644Z,7.6
2018-12-04T09:37:06.021Z,7.7
2018-12-04T09:37:55.747Z,7.8
2018-12-04T09:38:46.074Z,7.9
2018-12-04T09:39:36.678Z,7.9
2018-12-04T09:40:26.422Z,8.1
2018-12-04T09:41:16.526Z,8.2
2018-12-04T09:42:06.793Z,8.3
2018-12-04T09:42:56.296Z,8.4
2018-12-04T09:43:46.886Z,8.6
2018-12-04T09:44:36.951Z,8.7
2018-12-04T09:45:27.005Z,8.8
2018-12-04T09:46:16.251Z,8.9
2018-12-04T09:47:07.139Z,9.1
2018-12-04T09:47:56.923Z,9.3
2018-12-04T09:48:47.279Z,9.4
2018-12-04T09:49:37.298Z,9.5
2018-12-04T09:50:27.068Z,9.7
2018-12-04T09:51:17.666Z,9.9
2018-12-04T09:52:06.644Z,10.1
2018-12-04T09:52:57.533Z,10.2
2018-12-04T09:53:53.451Z,10.4
2018-12-04T09:54:37.646Z,10.6
2018-12-04T09:55:27.681Z,10.8
2018-12-04T09:56:17.515Z,10.9
2018-12-04T09:57:07.243Z,11
2018-12-04T09:57:57.578Z,11.1
2018-12-04T09:58:47.638Z,11.3
2018-12-04T09:59:41.298Z,11.4
2018-12-04T10:00:28.027Z,11.4
2018-12-04T10:01:17.553Z,11.6
2018-12-04T10:02:08.140Z,11.6
2018-12-04T10:02:58.205Z,11.7
2018-12-04T10:03:47.988Z,11.8
2018-12-04T10:04:38.090Z,11.9
2018-12-04T10:05:28.370Z,11.9
2018-12-04T10:06:18.144Z,12
2018-12-04T10:07:08.017Z,12.1
2018-12-04T10:07:58.545Z,12.1
2018-12-04T10:08:48.607Z,12.2
2018-12-04T10:09:38.649Z,12.2
2018-12-04T10:10:28.432Z,12.2
2018-12-04T10:11:18.497Z,12.3
2018-12-04T10:12:08.553Z,12.3
2018-12-04T10:12:58.709Z,12.3
2018-12-04T10:13:48.964Z,12.3
2018-12-04T10:14:39.239Z,12.4
2018-12-04T10:15:28.786Z,12.4
2018-12-04T10:16:18.559Z,12.4
2018-12-04T10:17:09.200Z,12.5
2018-12-04T10:17:58.966Z,12.5
2018-12-04T10:18:49.044Z,12.6
2018-12-04T10:19:39.337Z,12.6
2018-12-04T10:20:29.156Z,12.8
2018-12-04T10:21:19.416Z,12.8
2018-12-04T10:22:09.510Z,12.8
2018-12-04T10:22:59.574Z,12.9
2018-12-04T10:23:49.629Z,12.9
2018-12-04T10:24:39.121Z,12.9
2018-12-04T10:25:29.464Z,13
2018-12-04T10:26:19.238Z,13.1
2018-12-04T10:27:09.570Z,13.1
2018-12-04T10:27:59.918Z,13.2
2018-12-04T10:28:49.766Z,13.2
2018-12-04T10:29:40.023Z,13.3
2018-12-04T10:30:29.815Z,13.3
2018-12-04T10:31:20.138Z,13.4
2018-12-04T10:32:09.925Z,13.4
2018-12-04T10:33:00.036Z,13.4
2018-12-04T10:33:50.040Z,13.4
2018-12-04T10:34:40.100Z,13.4
2018-12-04T10:35:30.425Z,13.4
2018-12-04T10:36:20.217Z,13.4
2018-12-04T10:37:10.520Z,13.4
2018-12-04T10:38:01.715Z,13.5
2018-12-04T10:38:50.392Z,13.5
2018-12-04T10:39:40.442Z,13.5
2018-12-04T10:40:30.778Z,13.5
2018-12-04T10:41:20.817Z,13.5
2018-12-04T10:42:10.884Z,13.5
2018-12-04T10:43:00.378Z,13.5
2018-12-04T10:43:50.442Z,13.5
2018-12-04T10:44:40.772Z,13.4
2018-12-04T10:45:30.835Z,13.4
2018-12-04T10:46:21.220Z,13.4
2018-12-04T10:47:10.677Z,13.4
2018-12-04T10:48:01.316Z,13.5
2018-12-04T10:48:51.053Z,13.5
2018-12-04T10:49:41.661Z,13.5
2018-12-04T10:50:30.913Z,13.5
2018-12-04T10:51:21.561Z,13.5
2018-12-04T10:52:11.274Z,13.6
2018-12-04T10:53:01.329Z,13.6
2018-12-04T10:53:51.404Z,13.6
2018-12-04T10:54:41.450Z,13.6
2018-12-04T10:55:31.231Z,13.6
2018-12-04T10:56:21.863Z,13.6
2018-12-04T10:57:11.664Z,13.6
2018-12-04T10:58:01.686Z,13.6
2018-12-04T10:58:51.266Z,13.6
2018-12-04T10:59:41.811Z,13.6
2018-12-04T11:00:31.843Z,13.7
2018-12-04T11:01:22.173Z,13.7
2018-12-04T11:02:11.963Z,13.7
2018-12-04T11:03:02.004Z,13.7
2018-12-04T11:03:52.088Z,13.7
2018-12-04T11:04:42.413Z,13.7
2018-12-04T11:05:32.806Z,13.7
2018-12-04T11:06:22.528Z,13.8
2018-12-04T11:07:12.603Z,13.8
2018-12-04T11:08:02.380Z,13.8
2018-12-04T11:08:52.424Z,13.7
2018-12-04T11:09:42.740Z,13.7
2018-12-04T11:10:32.518Z,13.7
2018-12-04T11:11:22.602Z,13.7
2018-12-04T11:12:14.636Z,13.6
2018-12-04T11:13:02.972Z,13.6
2018-12-04T11:13:51.931Z,13.6
2018-12-04T11:14:42.820Z,13.5
2018-12-04T11:15:33.150Z,13.5
2018-12-04T11:16:22.652Z,13.4
2018-12-04T11:17:12.704Z,13.4
2018-12-04T11:18:03.560Z,13.3
2018-12-04T11:18:52.857Z,13.3
2018-12-04T11:19:42.987Z,13.3
2018-12-04T11:20:33.235Z,13.2
2018-12-04T11:21:23.531Z,13.1
2018-12-04T11:22:13.842Z,13.1
2018-12-04T11:23:03.382Z,13
2018-12-04T11:23:53.229Z,12.9
2018-12-04T11:24:43.279Z,12.9
2018-12-04T11:25:34.119Z,12.8
2018-12-04T11:26:23.624Z,12.8
2018-12-04T11:27:13.719Z,12.6
2018-12-04T11:28:03.512Z,12.6
2018-12-04T11:28:53.785Z,12.6
2018-12-04T11:29:43.629Z,12.5
2018-12-04T11:30:33.394Z,12.4
2018-12-04T11:31:23.938Z,12.4
2018-12-04T11:32:13.792Z,12.4
2018-12-04T11:33:03.841Z,12.3
2018-12-04T11:33:53.412Z,12.3
2018-12-04T11:34:43.881Z,12.2
2018-12-04T11:35:33.464Z,12.2
2018-12-04T11:36:23.524Z,12.1
2018-12-04T11:37:14.126Z,12.1
2018-12-04T11:38:03.893Z,12.1
2018-12-04T11:38:54.434Z,12.1
2018-12-04T11:39:44.288Z,12
2018-12-04T11:40:34.609Z,11.9
2018-12-04T11:41:24.131Z,11.9
2018-12-04T11:42:14.464Z,11.9
2018-12-04T11:43:04.269Z,11.8
2018-12-04T11:43:54.306Z,11.8
2018-12-04T11:44:44.631Z,11.8
2018-12-04T11:45:34.938Z,11.8
2018-12-04T11:46:24.475Z,11.7
2018-12-04T11:47:15.000Z,11.6
2018-12-04T11:48:05.398Z,11.6
2018-12-04T11:48:54.371Z,11.6
2018-12-04T11:49:45.231Z,11.6
2018-12-04T11:50:35.253Z,11.6
2018-12-04T11:51:25.300Z,11.5
2018-12-04T11:52:15.146Z,11.4
2018-12-04T11:53:05.483Z,11.4
2018-12-04T11:53:55.749Z,11.4
2018-12-04T11:54:45.048Z,11.4
2018-12-04T11:55:35.845Z,11.4
2018-12-04T11:56:25.434Z,11.4
2018-12-04T11:57:15.981Z,11.4
2018-12-04T11:58:05.746Z,11.4
2018-12-04T11:58:56.080Z,11.4
2018-12-04T11:59:46.137Z,11.4
2018-12-04T12:00:36.198Z,11.4
2018-12-04T12:01:25.720Z,11.4
2018-12-04T12:02:16.317Z,11.4